sensor_id;sensor_type;location;lat;lon;timestamp;pressure;altitude;pressure_sealevel;temperature;humidity
58843;BME280;44614;54.356;10.100;2023-02-12T00:00:20;103177.47;;;5.82;100.00
58843;BME280;44614;54.356;10.100;2023-02-12T00:02:45;103181.06;;;5.82;100.00
58843;BME280;44614;54.356;10.100;2023-02-12T00:05:10;103179.00;;;5.75;100.00
58843;BME280;44614;54.356;10.100;2023-02-12T00:07:36;103187.66;;;5.80;100.00
58843;BME280;44614;54.356;10.100;2023-02-12T00:10:01;103195.97;;;5.78;100.00
58843;BME280;44614;54.356;10.100;2023-02-12T00:12:26;103209.59;;;5.78;100.00
58843;BME280;44614;54.356;10.100;2023-02-12T00:14:51;103205.81;;;5.70;100.00
58843;BME280;44614;54.356;10.100;2023-02-12T00:17:17;103208.34;;;5.61;100.00
58843;BME280;44614;54.356;10.100;2023-02-12T00:19:42;103197.13;;;5.55;100.00
58843;BME280;44614;54.356;10.100;2023-02-12T00:22:08;103223.03;;;5.70;100.00
58843;BME280;44614;54.356;10.100;2023-02-12T00:24:33;103212.66;;;5.64;100.00
58843;BME280;44614;54.356;10.100;2023-02-12T00:26:58;103218.84;;;5.66;100.00
58843;BME280;44614;54.356;10.100;2023-02-12T00:29:24;103215.53;;;5.62;100.00
58843;BME280;44614;54.356;10.100;2023-02-12T00:31:49;103212.81;;;5.62;100.00
58843;BME280;44614;54.356;10.100;2023-02-12T00:34:15;103217.13;;;5.65;100.00
58843;BME280;44614;54.356;10.100;2023-02-12T00:36:40;103220.22;;;5.60;100.00
58843;BME280;44614;54.356;10.100;2023-02-12T00:39:05;103228.91;;;5.66;100.00
58843;BME280;44614;54.356;10.100;2023-02-12T00:41:31;103232.50;;;5.66;100.00
58843;BME280;44614;54.356;10.100;2023-02-12T00:43:56;103207.41;;;5.51;100.00
58843;BME280;44614;54.356;10.100;2023-02-12T00:46:22;103229.00;;;5.64;100.00
58843;BME280;44614;54.356;10.100;2023-02-12T00:48:47;103239.66;;;5.67;100.00
58843;BME280;44614;54.356;10.100;2023-02-12T00:51:12;103239.06;;;5.63;100.00
58843;BME280;44614;54.356;10.100;2023-02-12T00:53:38;103213.47;;;5.55;100.00
58843;BME280;44614;54.356;10.100;2023-02-12T00:56:04;103241.97;;;5.72;100.00
58843;BME280;44614;54.356;10.100;2023-02-12T00:58:29;103233.09;;;5.70;100.00
58843;BME280;44614;54.356;10.100;2023-02-12T01:00:55;103246.47;;;5.73;100.00
58843;BME280;44614;54.356;10.100;2023-02-12T01:03:20;103237.38;;;5.72;100.00
58843;BME280;44614;54.356;10.100;2023-02-12T01:05:46;103235.81;;;5.70;100.00
58843;BME280;44614;54.356;10.100;2023-02-12T01:08:13;103243.75;;;5.73;100.00
58843;BME280;44614;54.356;10.100;2023-02-12T01:10:39;103242.84;;;5.72;100.00
58843;BME280;44614;54.356;10.100;2023-02-12T01:13:04;103237.34;;;5.62;100.00
58843;BME280;44614;54.356;10.100;2023-02-12T01:15:30;103243.41;;;5.66;100.00
58843;BME280;44614;54.356;10.100;2023-02-12T01:17:55;103254.03;;;5.69;100.00
58843;BME280;44614;54.356;10.100;2023-02-12T01:20:22;103238.16;;;5.53;100.00
58843;BME280;44614;54.356;10.100;2023-02-12T01:22:48;103254.16;;;5.68;100.00
58843;BME280;44614;54.356;10.100;2023-02-12T01:25:14;103257.47;;;5.71;100.00
58843;BME280;44614;54.356;10.100;2023-02-12T01:27:40;103264.66;;;5.72;100.00
58843;BME280;44614;54.356;10.100;2023-02-12T01:30:08;103241.06;;;5.61;100.00
58843;BME280;44614;54.356;10.100;2023-02-12T01:32:33;103250.56;;;5.67;100.00
58843;BME280;44614;54.356;10.100;2023-02-12T01:34:59;103261.94;;;5.72;100.00
58843;BME280;44614;54.356;10.100;2023-02-12T01:37:25;103254.63;;;5.73;100.00
58843;BME280;44614;54.356;10.100;2023-02-12T01:39:50;103253.56;;;5.64;100.00
58843;BME280;44614;54.356;10.100;2023-02-12T01:42:15;103262.06;;;5.71;100.00
58843;BME280;44614;54.356;10.100;2023-02-12T01:47:38;103275.72;;;5.71;100.00
58843;BME280;44614;54.356;10.100;2023-02-12T01:50:05;103267.28;;;5.74;100.00
58843;BME280;44614;54.356;10.100;2023-02-12T01:52:33;103256.63;;;5.71;100.00
58843;BME280;44614;54.356;10.100;2023-02-12T01:55:03;103261.81;;;5.74;100.00
58843;BME280;44614;54.356;10.100;2023-02-12T01:57:31;103267.28;;;5.74;100.00
58843;BME280;44614;54.356;10.100;2023-02-12T01:59:59;103261.81;;;5.74;100.00
58843;BME280;44614;54.356;10.100;2023-02-12T02:02:26;103265.56;;;5.73;100.00
58843;BME280;44614;54.356;10.100;2023-02-12T02:04:56;103267.38;;;5.72;100.00
58843;BME280;44614;54.356;10.100;2023-02-12T02:07:23;103267.53;;;5.71;100.00
58843;BME280;44614;54.356;10.100;2023-02-12T02:09:48;103264.81;;;5.71;100.00
58843;BME280;44614;54.356;10.100;2023-02-12T02:12:14;103271.88;;;5.73;100.00
58843;BME280;44614;54.356;10.100;2023-02-12T02:14:59;103246.03;;;5.56;100.00
58843;BME280;44614;54.356;10.100;2023-02-12T02:28:50;103262.94;;;5.71;100.00
58843;BME280;44614;54.356;10.100;2023-02-12T02:31:23;103271.78;;;5.63;100.00
58843;BME280;44614;54.356;10.100;2023-02-12T02:33:55;103264.41;;;5.75;100.00
58843;BME280;44614;54.356;10.100;2023-02-12T02:36:35;103260.97;;;5.73;100.00
58843;BME280;44614;54.356;10.100;2023-02-12T02:39:50;103266.16;;;5.76;100.00
58843;BME280;44614;54.356;10.100;2023-02-12T02:42:00;103269.75;;;5.77;100.00
58843;BME280;44614;54.356;10.100;2023-02-12T02:44:45;103260.09;;;5.73;100.00
58843;BME280;44614;54.356;10.100;2023-02-12T02:47:14;103267.13;;;5.75;100.00
58843;BME280;44614;54.356;10.100;2023-02-12T02:49:46;103261.66;;;5.75;100.00
58843;BME280;44614;54.356;10.100;2023-02-12T02:52:18;103255.63;;;5.72;100.00
58843;BME280;44614;54.356;10.100;2023-02-12T02:54:48;103241.94;;;5.62;100.00
58843;BME280;44614;54.356;10.100;2023-02-12T02:57:20;103270.72;;;5.76;100.00
58843;BME280;44614;54.356;10.100;2023-02-12T02:59:53;103223.56;;;5.43;100.00
58843;BME280;44614;54.356;10.100;2023-02-12T03:02:23;103264.53;;;5.74;100.00
58843;BME280;44614;54.356;10.100;2023-02-12T03:05:21;103264.53;;;5.74;100.00
58843;BME280;44614;54.356;10.100;2023-02-12T03:08:04;103254.75;;;5.71;100.00
58843;BME280;44614;54.356;10.100;2023-02-12T03:10:36;103260.69;;;5.76;100.00
58843;BME280;44614;54.356;10.100;2023-02-12T03:13:15;103265.16;;;5.77;100.00
58843;BME280;44614;54.356;10.100;2023-02-12T03:15:50;103266.00;;;5.78;100.00
58843;BME280;44614;54.356;10.100;2023-02-12T03:18:25;103257.38;;;5.73;100.00
58843;BME280;44614;54.356;10.100;2023-02-12T03:20:58;103265.25;;;5.76;100.00
58843;BME280;44614;54.356;10.100;2023-02-12T03:23:29;103258.34;;;5.72;100.00
58843;BME280;44614;54.356;10.100;2023-02-12T03:26:00;103269.25;;;5.72;100.00
58843;BME280;44614;54.356;10.100;2023-02-12T03:28:31;103270.84;;;5.74;100.00
58843;BME280;44614;54.356;10.100;2023-02-12T03:31:24;103263.94;;;5.70;100.00
58843;BME280;44614;54.356;10.100;2023-02-12T03:38:54;103270.72;;;5.76;100.00
58843;BME280;44614;54.356;10.100;2023-02-12T03:41:23;103268.13;;;5.74;100.00
58843;BME280;44614;54.356;10.100;2023-02-12T03:43:52;103271.97;;;5.72;100.00
58843;BME280;44614;54.356;10.100;2023-02-12T03:46:20;103271.00;;;5.73;100.00
58843;BME280;44614;54.356;10.100;2023-02-12T03:48:56;103267.66;;;5.69;100.00
58843;BME280;44614;54.356;10.100;2023-02-12T03:51:26;103269.25;;;5.72;100.00
58843;BME280;44614;54.356;10.100;2023-02-12T03:53:55;103274.69;;;5.72;100.00
58843;BME280;44614;54.356;10.100;2023-02-12T03:56:25;103275.00;;;5.69;100.00
58843;BME280;44614;54.356;10.100;2023-02-12T03:58:52;103272.97;;;5.71;100.00
58843;BME280;44614;54.356;10.100;2023-02-12T04:01:18;103280.28;;;5.70;100.00
58843;BME280;44614;54.356;10.100;2023-02-12T04:03:43;103285.50;;;5.73;100.00
58843;BME280;44614;54.356;10.100;2023-02-12T04:06:22;103293.69;;;5.73;100.00
58843;BME280;44614;54.356;10.100;2023-02-12T04:08:49;103291.81;;;5.74;100.00
58843;BME280;44614;54.356;10.100;2023-02-12T04:16:32;103302.72;;;5.74;100.00
58843;BME280;44614;54.356;10.100;2023-02-12T04:18:59;103298.63;;;5.68;100.00
58843;BME280;44614;54.356;10.100;2023-02-12T04:24:30;103312.00;;;5.71;100.00
58843;BME280;44614;54.356;10.100;2023-02-12T04:27:13;103308.69;;;5.68;100.00
58843;BME280;44614;54.356;10.100;2023-02-12T04:29:49;103284.47;;;5.53;100.00
58843;BME280;44614;54.356;10.100;2023-02-12T04:40:17;103318.50;;;5.59;100.00
58843;BME280;44614;54.356;10.100;2023-02-12T04:42:45;103304.41;;;5.54;100.00
58843;BME280;44614;54.356;10.100;2023-02-12T04:45:13;103315.03;;;5.57;100.00
58843;BME280;44614;54.356;10.100;2023-02-12T04:47:40;103315.44;;;5.52;100.00
58843;BME280;44614;54.356;10.100;2023-02-12T04:50:06;103306.66;;;5.49;100.00
58843;BME280;44614;54.356;10.100;2023-02-12T04:52:31;103316.56;;;5.50;100.00
58843;BME280;44614;54.356;10.100;2023-02-12T04:54:57;103317.44;;;5.50;100.00
58843;BME280;44614;54.356;10.100;2023-02-12T04:57:22;103318.69;;;5.46;100.00
58843;BME280;44614;54.356;10.100;2023-02-12T04:59:47;103319.56;;;5.47;100.00
58843;BME280;44614;54.356;10.100;2023-02-12T05:02:12;103327.59;;;5.48;100.00
58843;BME280;44614;54.356;10.100;2023-02-12T05:04:38;103327.84;;;5.45;100.00
58843;BME280;44614;54.356;10.100;2023-02-12T05:07:03;103333.44;;;5.44;100.00
58843;BME280;44614;54.356;10.100;2023-02-12T05:09:28;103332.97;;;5.38;100.00
58843;BME280;44614;54.356;10.100;2023-02-12T05:11:54;103314.25;;;5.34;100.00
58843;BME280;44614;54.356;10.100;2023-02-12T05:14:19;103326.66;;;5.38;100.00
58843;BME280;44614;54.356;10.100;2023-02-12T05:16:44;103323.94;;;5.38;100.00
58843;BME280;44614;54.356;10.100;2023-02-12T05:19:10;103327.50;;;5.38;100.00
58843;BME280;44614;54.356;10.100;2023-02-12T05:21:36;103334.69;;;5.40;100.00
58843;BME280;44614;54.356;10.100;2023-02-12T05:24:02;103335.56;;;5.40;100.00
58843;BME280;44614;54.356;10.100;2023-02-12T05:26:27;103330.59;;;5.34;100.00
58843;BME280;44614;54.356;10.100;2023-02-12T05:28:53;103325.16;;;5.34;100.00
58843;BME280;44614;54.356;10.100;2023-02-12T05:31:19;103323.44;;;5.33;100.00
58843;BME280;44614;54.356;10.100;2023-02-12T05:33:46;103332.59;;;5.32;100.00
58843;BME280;44614;54.356;10.100;2023-02-12T05:36:12;103335.72;;;5.27;100.00
58843;BME280;44614;54.356;10.100;2023-02-12T05:38:38;103336.97;;;5.23;100.00
58843;BME280;44614;54.356;10.100;2023-02-12T05:41:06;103342.28;;;5.25;100.00
58843;BME280;44614;54.356;10.100;2023-02-12T05:43:31;103327.31;;;5.19;100.00
58843;BME280;44614;54.356;10.100;2023-02-12T05:45:58;103340.16;;;5.28;100.00
58843;BME280;44614;54.356;10.100;2023-02-12T05:48:24;103341.28;;;5.26;100.00
58843;BME280;44614;54.356;10.100;2023-02-12T05:50:49;103330.16;;;5.18;100.00
58843;BME280;44614;54.356;10.100;2023-02-12T05:53:14;103342.41;;;5.23;100.00
58843;BME280;44614;54.356;10.100;2023-02-12T05:55:39;103347.88;;;5.23;100.00
58843;BME280;44614;54.356;10.100;2023-02-12T05:58:05;103338.94;;;5.21;100.00
58843;BME280;44614;54.356;10.100;2023-02-12T06:00:30;103277.50;;;4.85;100.00
58843;BME280;44614;54.356;10.100;2023-02-12T06:02:55;103344.84;;;5.26;100.00
58843;BME280;44614;54.356;10.100;2023-02-12T06:05:20;103335.09;;;5.24;100.00
58843;BME280;44614;54.356;10.100;2023-02-12T06:07:46;103334.59;;;5.19;100.00
58843;BME280;44614;54.356;10.100;2023-02-12T06:10:11;103344.00;;;5.26;100.00
58843;BME280;44614;54.356;10.100;2023-02-12T06:12:37;103330.41;;;5.14;100.00
58843;BME280;44614;54.356;10.100;2023-02-12T06:15:02;103325.22;;;5.11;100.00
58843;BME280;44614;54.356;10.100;2023-02-12T06:17:28;103347.88;;;5.23;100.00
58843;BME280;44614;54.356;10.100;2023-02-12T06:19:53;103346.00;;;5.24;100.00
58843;BME280;44614;54.356;10.100;2023-02-12T06:22:18;103331.88;;;5.19;100.00
58843;BME280;44614;54.356;10.100;2023-02-12T06:24:43;103350.19;;;5.28;100.00
58843;BME280;44614;54.356;10.100;2023-02-12T06:27:09;103345.13;;;5.23;100.00
58843;BME280;44614;54.356;10.100;2023-02-12T06:29:34;103351.31;;;5.25;100.00
58843;BME280;44614;54.356;10.100;2023-02-12T06:31:59;103357.50;;;5.27;100.00
58843;BME280;44614;54.356;10.100;2023-02-12T06:34:25;103355.91;;;5.25;100.00
58843;BME280;44614;54.356;10.100;2023-02-12T06:36:50;103360.25;;;5.27;100.00
58843;BME280;44614;54.356;10.100;2023-02-12T06:39:16;103337.94;;;5.11;100.00
58843;BME280;44614;54.356;10.100;2023-02-12T06:41:41;103360.97;;;5.29;100.00
58843;BME280;44614;54.356;10.100;2023-02-12T06:44:06;103339.56;;;5.13;100.00
58843;BME280;44614;54.356;10.100;2023-02-12T06:46:32;103364.81;;;5.27;100.00
58843;BME280;44614;54.356;10.100;2023-02-12T06:48:59;103368.16;;;5.30;100.00
58843;BME280;44614;54.356;10.100;2023-02-12T06:51:26;103372.72;;;5.30;100.00
58843;BME280;44614;54.356;10.100;2023-02-12T06:53:53;103379.66;;;5.34;100.00
58843;BME280;44614;54.356;10.100;2023-02-12T06:56:20;103373.34;;;5.33;100.00
58843;BME280;44614;54.356;10.100;2023-02-12T06:58:47;103393.16;;;5.35;100.00
58843;BME280;44614;54.356;10.100;2023-02-12T07:01:18;103397.75;;;5.35;100.00
58843;BME280;44614;54.356;10.100;2023-02-12T07:03:55;103399.47;;;5.36;100.00
58843;BME280;44614;54.356;10.100;2023-02-12T07:06:21;103385.09;;;5.34;100.00
58843;BME280;44614;54.356;10.100;2023-02-12T07:08:47;103402.97;;;5.38;100.00
58843;BME280;44614;54.356;10.100;2023-02-12T07:11:13;103388.72;;;5.34;100.00
58843;BME280;44614;54.356;10.100;2023-02-12T07:13:42;103386.47;;;5.40;100.00
58843;BME280;44614;54.356;10.100;2023-02-12T07:16:11;103354.91;;;5.14;100.00
58843;BME280;44614;54.356;10.100;2023-02-12T07:18:37;103406.25;;;5.42;100.00
58843;BME280;44614;54.356;10.100;2023-02-12T07:21:04;103400.72;;;5.43;100.00
58843;BME280;44614;54.356;10.100;2023-02-12T07:23:31;103396.25;;;5.42;100.00
58843;BME280;44614;54.356;10.100;2023-02-12T07:26:02;103406.88;;;5.45;100.00
58843;BME280;44614;54.356;10.100;2023-02-12T07:28:28;103400.72;;;5.43;100.00
58843;BME280;44614;54.356;10.100;2023-02-12T07:30:58;103360.72;;;5.21;100.00
58843;BME280;44614;54.356;10.100;2023-02-12T07:33:23;103392.78;;;5.40;100.00
58843;BME280;44614;54.356;10.100;2023-02-12T07:35:49;103399.69;;;5.44;100.00
58843;BME280;44614;54.356;10.100;2023-02-12T07:38:14;103409.34;;;5.48;100.00
58843;BME280;44614;54.356;10.100;2023-02-12T07:40:40;103412.94;;;5.49;100.00
58843;BME280;44614;54.356;10.100;2023-02-12T07:43:05;103411.06;;;5.49;100.00
58843;BME280;44614;54.356;10.100;2023-02-12T07:45:30;103421.97;;;5.49;100.00
58843;BME280;44614;54.356;10.100;2023-02-12T07:47:56;103427.44;;;5.49;100.00
58843;BME280;44614;54.356;10.100;2023-02-12T07:50:21;103425.59;;;5.50;100.00
58843;BME280;44614;54.356;10.100;2023-02-12T07:52:50;103408.41;;;5.38;100.00
58843;BME280;44614;54.356;10.100;2023-02-12T07:55:16;103441.56;;;5.54;100.00
58843;BME280;44614;54.356;10.100;2023-02-12T07:57:41;103412.72;;;5.41;100.00
58843;BME280;44614;54.356;10.100;2023-02-12T08:00:07;103441.56;;;5.54;100.00
58843;BME280;44614;54.356;10.100;2023-02-12T08:02:33;103452.22;;;5.57;100.00
58843;BME280;44614;54.356;10.100;2023-02-12T08:04:59;103443.03;;;5.58;100.00
58843;BME280;44614;54.356;10.100;2023-02-12T08:07:24;103432.38;;;5.55;100.00
58843;BME280;44614;54.356;10.100;2023-02-12T08:09:50;103449.97;;;5.62;100.00
58843;BME280;44614;54.356;10.100;2023-02-12T08:12:16;103450.69;;;5.65;100.00
58843;BME280;44614;54.356;10.100;2023-02-12T08:14:41;103445.13;;;5.66;100.00
58843;BME280;44614;54.356;10.100;2023-02-12T08:17:07;103459.25;;;5.71;100.00
58843;BME280;44614;54.356;10.100;2023-02-12T08:19:33;103448.94;;;5.75;100.00
58843;BME280;44614;54.356;10.100;2023-02-12T08:21:59;103431.63;;;5.65;100.00
58843;BME280;44614;54.356;10.100;2023-02-12T08:24:28;103411.44;;;5.56;100.00
58843;BME280;44614;54.356;10.100;2023-02-12T08:26:54;103462.56;;;5.86;100.00
58843;BME280;44614;54.356;10.100;2023-02-12T08:29:22;103460.59;;;5.88;100.00
58843;BME280;44614;54.356;10.100;2023-02-12T08:31:50;103455.25;;;5.86;100.00
58843;BME280;44614;54.356;10.100;2023-02-12T08:34:19;103468.41;;;5.93;100.00
58843;BME280;44614;54.356;10.100;2023-02-12T08:36:47;103456.00;;;5.89;100.00
58843;BME280;44614;54.356;10.100;2023-02-12T08:39:13;103452.25;;;5.90;100.00
58843;BME280;44614;54.356;10.100;2023-02-12T08:41:38;103463.91;;;6.03;100.00
58843;BME280;44614;54.356;10.100;2023-02-12T08:44:06;103474.69;;;6.04;100.00
58843;BME280;44614;54.356;10.100;2023-02-12T08:46:38;103459.31;;;6.03;100.00
58843;BME280;44614;54.356;10.100;2023-02-12T08:49:06;103467.13;;;6.08;100.00
58843;BME280;44614;54.356;10.100;2023-02-12T08:51:38;103467.84;;;6.10;100.00
58843;BME280;44614;54.356;10.100;2023-02-12T08:54:05;103452.34;;;6.10;100.00
58843;BME280;44614;54.356;10.100;2023-02-12T08:56:33;103423.50;;;5.97;100.00
58843;BME280;44614;54.356;10.100;2023-02-12T08:59:00;103462.09;;;6.24;100.00
58843;BME280;44614;54.356;10.100;2023-02-12T09:01:27;103457.06;;;6.08;100.00
58843;BME280;44614;54.356;10.100;2023-02-12T09:03:53;103461.69;;;6.29;100.00
58843;BME280;44614;54.356;10.100;2023-02-12T09:06:23;103473.09;;;6.34;100.00
58843;BME280;44614;54.356;10.100;2023-02-12T09:08:49;103480.28;;;6.35;100.00
58843;BME280;44614;54.356;10.100;2023-02-12T09:11:17;103483.22;;;6.43;100.00
58843;BME280;44614;54.356;10.100;2023-02-12T09:13:46;103455.38;;;6.28;100.00
58843;BME280;44614;54.356;10.100;2023-02-12T09:16:13;103479.47;;;6.44;100.00
58843;BME280;44614;54.356;10.100;2023-02-12T09:18:38;103474.31;;;6.41;100.00
58843;BME280;44614;54.356;10.100;2023-02-12T09:21:11;103498.31;;;6.47;100.00
58843;BME280;44614;54.356;10.100;2023-02-12T09:23:38;103456.97;;;6.31;100.00
58843;BME280;44614;54.356;10.100;2023-02-12T09:26:09;103497.31;;;6.48;100.00
58843;BME280;44614;54.356;10.100;2023-02-12T09:28:35;103485.44;;;6.49;100.00
58843;BME280;44614;54.356;10.100;2023-02-12T09:31:06;103503.94;;;6.67;100.00
58843;BME280;44614;54.356;10.100;2023-02-12T09:33:32;103437.31;;;6.37;100.00
58843;BME280;44614;54.356;10.100;2023-02-12T09:36:03;103454.53;;;6.49;100.00
58843;BME280;44614;54.356;10.100;2023-02-12T09:38:29;103482.56;;;6.72;100.00
58843;BME280;44614;54.356;10.100;2023-02-12T09:43:43;103494.16;;;6.85;100.00
58843;BME280;44614;54.356;10.100;2023-02-12T09:46:18;103492.03;;;6.89;100.00
58843;BME280;44614;54.356;10.100;2023-02-12T09:49:08;103505.53;;;6.90;100.00
58843;BME280;44614;54.356;10.100;2023-02-12T09:51:35;103489.56;;;6.86;100.00
58843;BME280;44614;54.356;10.100;2023-02-12T09:54:05;103495.34;;;6.92;100.00
58843;BME280;44614;54.356;10.100;2023-02-12T09:56:33;103497.81;;;6.95;100.00
58843;BME280;44614;54.356;10.100;2023-02-12T09:59:00;103498.53;;;6.97;100.00
58843;BME280;44614;54.356;10.100;2023-02-12T10:01:28;103507.88;;;6.95;100.00
58843;BME280;44614;54.356;10.100;2023-02-12T10:03:54;103520.66;;;6.94;100.00
58843;BME280;44614;54.356;10.100;2023-02-12T10:06:34;103493.63;;;6.91;100.00
58843;BME280;44614;54.356;10.100;2023-02-12T10:17:41;103503.31;;;7.05;100.00
58843;BME280;44614;54.356;10.100;2023-02-12T10:25:52;103498.38;;;7.20;100.00
58843;BME280;44614;54.356;10.100;2023-02-12T10:28:36;103486.03;;;7.25;100.00
58843;BME280;44614;54.356;10.100;2023-02-12T10:31:08;103467.59;;;7.18;100.00
58843;BME280;44614;54.356;10.100;2023-02-12T10:33:48;103461.25;;;7.17;100.00
58843;BME280;44614;54.356;10.100;2023-02-12T10:36:31;103481.19;;;7.39;100.00
58843;BME280;44614;54.356;10.100;2023-02-12T10:39:05;103485.81;;;7.38;100.00
58843;BME280;44614;54.356;10.100;2023-02-12T10:41:57;103488.13;;;7.43;100.00
58843;BME280;44614;54.356;10.100;2023-02-12T10:44:26;103487.69;;;7.47;100.00
58843;BME280;44614;54.356;10.100;2023-02-12T10:46:51;103470.59;;;7.45;100.00
58843;BME280;44614;54.356;10.100;2023-02-12T10:49:18;103472.53;;;7.64;100.00
58843;BME280;44614;54.356;10.100;2023-02-12T10:52:23;103481.03;;;7.80;100.00
58843;BME280;44614;54.356;10.100;2023-02-12T10:54:51;103458.88;;;7.84;100.00
58843;BME280;44614;54.356;10.100;2023-02-12T10:59:49;103489.19;;;8.21;100.00
58843;BME280;44614;54.356;10.100;2023-02-12T11:02:25;103490.03;;;8.21;100.00
58843;BME280;44614;54.356;10.100;2023-02-12T11:04:52;103483.84;;;8.19;100.00
58843;BME280;44614;54.356;10.100;2023-02-12T11:07:19;103489.88;;;8.23;100.00
58843;BME280;44614;54.356;10.100;2023-02-12T11:09:46;103490.91;;;8.22;100.00
58843;BME280;44614;54.356;10.100;2023-02-12T11:15:05;103475.31;;;8.03;100.00
58843;BME280;44614;54.356;10.100;2023-02-12T11:17:39;103465.66;;;7.99;100.00
58843;BME280;44614;54.356;10.100;2023-02-12T11:25:55;103450.84;;;8.01;100.00
58843;BME280;44614;54.356;10.100;2023-02-12T11:28:21;103475.78;;;8.18;100.00
58843;BME280;44614;54.356;10.100;2023-02-12T11:31:28;103482.25;;;8.17;100.00
58843;BME280;44614;54.356;10.100;2023-02-12T11:36:28;103474.06;;;8.17;100.00
58843;BME280;44614;54.356;10.100;2023-02-12T11:38:55;103459.22;;;8.10;100.00
58843;BME280;44614;54.356;10.100;2023-02-12T11:43:49;103466.69;;;8.27;100.00
58843;BME280;44614;54.356;10.100;2023-02-12T11:46:24;103452.88;;;8.28;100.00
58843;BME280;44614;54.356;10.100;2023-02-12T11:48:52;103457.75;;;8.35;100.00
58843;BME280;44614;54.356;10.100;2023-02-12T11:51:25;103431.25;;;8.25;100.00
58843;BME280;44614;54.356;10.100;2023-02-12T11:53:54;103454.16;;;8.34;100.00
58843;BME280;44614;54.356;10.100;2023-02-12T11:56:21;103418.00;;;8.11;100.00
58843;BME280;44614;54.356;10.100;2023-02-12T11:58:48;103458.50;;;8.37;100.00
58843;BME280;44614;54.356;10.100;2023-02-12T12:01:24;103438.47;;;8.36;100.00
58843;BME280;44614;54.356;10.100;2023-02-12T12:04:12;103459.22;;;8.48;100.00
58843;BME280;44614;54.356;10.100;2023-02-12T12:06:50;103451.31;;;8.55;100.00
58843;BME280;44614;54.356;10.100;2023-02-12T12:14:35;103433.00;;;8.56;100.00
58843;BME280;44614;54.356;10.100;2023-02-12T12:17:29;103449.13;;;8.59;100.00
58843;BME280;44614;54.356;10.100;2023-02-12T12:20:22;103446.81;;;8.54;100.00
58843;BME280;44614;54.356;10.100;2023-02-12T12:25:26;103432.13;;;8.45;100.00
58843;BME280;44614;54.356;10.100;2023-02-12T12:27:58;103440.19;;;8.57;100.00
58843;BME280;44614;54.356;10.100;2023-02-12T12:33:11;103439.28;;;8.66;100.00
58843;BME280;44614;54.356;10.100;2023-02-12T12:39:00;103429.66;;;8.62;100.00
58843;BME280;44614;54.356;10.100;2023-02-12T12:47:39;103430.22;;;8.75;100.00
58843;BME280;44614;54.356;10.100;2023-02-12T13:00:53;103424.84;;;8.83;100.00
58843;BME280;44614;54.356;10.100;2023-02-12T13:16:48;103408.06;;;8.49;100.00
58843;BME280;44614;54.356;10.100;2023-02-12T13:19:33;103411.81;;;8.48;100.00
58843;BME280;44614;54.356;10.100;2023-02-12T13:24:54;103403.16;;;8.23;100.00
58843;BME280;44614;54.356;10.100;2023-02-12T13:27:24;103395.22;;;8.20;100.00
58843;BME280;44614;54.356;10.100;2023-02-12T13:32:40;103396.97;;;8.12;100.00
58843;BME280;44614;54.356;10.100;2023-02-12T13:35:14;103373.06;;;7.94;100.00
58843;BME280;44614;54.356;10.100;2023-02-12T13:37:42;103388.91;;;8.10;100.00
58843;BME280;44614;54.356;10.100;2023-02-12T13:40:16;103362.13;;;7.85;100.00
58843;BME280;44614;54.356;10.100;2023-02-12T13:43:28;103393.22;;;7.93;100.00
58843;BME280;44614;54.356;10.100;2023-02-12T13:45:58;103401.41;;;7.93;100.00
58843;BME280;44614;54.356;10.100;2023-02-12T13:51:27;103368.72;;;7.82;100.00
58843;BME280;44614;54.356;10.100;2023-02-12T13:56:44;103376.78;;;7.74;100.00
58843;BME280;44614;54.356;10.100;2023-02-12T14:01:54;103384.28;;;7.72;100.00
58843;BME280;44614;54.356;10.100;2023-02-12T14:06:58;103385.69;;;7.66;100.00
58843;BME280;44614;54.356;10.100;2023-02-12T14:12:26;103385.69;;;7.66;100.00
58843;BME280;44614;54.356;10.100;2023-02-12T14:15:07;103389.03;;;7.70;100.00
58843;BME280;44614;54.356;10.100;2023-02-12T14:23:02;103398.22;;;7.59;100.00
58843;BME280;44614;54.356;10.100;2023-02-12T14:25:56;103392.00;;;7.47;100.00
58843;BME280;44614;54.356;10.100;2023-02-12T14:28:28;103392.91;;;7.48;100.00
58843;BME280;44614;54.356;10.100;2023-02-12T14:33:43;103382.19;;;7.35;100.00
58843;BME280;44614;54.356;10.100;2023-02-12T14:41:44;103393.13;;;7.25;100.00
58843;BME280;44614;54.356;10.100;2023-02-12T14:46:42;103396.25;;;7.21;100.00
58843;BME280;44614;54.356;10.100;2023-02-12T14:51:53;103407.75;;;7.15;100.00
58843;BME280;44614;54.356;10.100;2023-02-12T14:54:36;103371.22;;;6.85;100.00
58843;BME280;44614;54.356;10.100;2023-02-12T14:57:07;103377.47;;;6.97;100.00
58843;BME280;44614;54.356;10.100;2023-02-12T14:59:39;103385.38;;;7.00;100.00
58843;BME280;44614;54.356;10.100;2023-02-12T15:02:08;103405.28;;;7.12;100.00
58843;BME280;44614;54.356;10.100;2023-02-12T15:04:38;103400.41;;;7.15;100.00
58843;BME280;44614;54.356;10.100;2023-02-12T15:07:13;103406.56;;;7.07;100.00
58843;BME280;44614;54.356;10.100;2023-02-12T15:09:56;103403.50;;;7.01;100.00
58843;BME280;44614;54.356;10.100;2023-02-12T15:12:34;103389.66;;;6.83;100.00
58843;BME280;44614;54.356;10.100;2023-02-12T15:15:17;103405.09;;;7.03;100.00
58843;BME280;44614;54.356;10.100;2023-02-12T15:18:09;103396.16;;;7.01;100.00
58843;BME280;44614;54.356;10.100;2023-02-12T15:20:50;103415.59;;;6.98;100.00
58843;BME280;44614;54.356;10.100;2023-02-12T15:23:38;103424.34;;;7.02;100.00